sensor_id;sensor_type;location;lat;lon;timestamp;P1;durP1;ratioP1;P2;durP2;ratioP2
18162;SDS011;9206;50.994;4.538;2022-12-18T00:00:23;65.60;;;26.50;;
18162;SDS011;9206;50.994;4.538;2022-12-18T00:03:18;61.40;;;26.80;;
18162;SDS011;9206;50.994;4.538;2022-12-18T00:06:06;58.47;;;26.60;;
18162;SDS011;9206;50.994;4.538;2022-12-18T00:11:46;57.13;;;24.70;;
18162;SDS011;9206;50.994;4.538;2022-12-18T00:14:37;57.47;;;28.03;;
18162;SDS011;9206;50.994;4.538;2022-12-18T00:17:35;60.37;;;26.63;;
18162;SDS011;9206;50.994;4.538;2022-12-18T00:20:29;59.30;;;26.07;;
18162;SDS011;9206;50.994;4.538;2022-12-18T00:23:23;61.93;;;26.60;;
18162;SDS011;9206;50.994;4.538;2022-12-18T00:26:11;61.07;;;27.03;;
18162;SDS011;9206;50.994;4.538;2022-12-18T00:29:04;55.53;;;25.97;;
18162;SDS011;9206;50.994;4.538;2022-12-18T00:31:59;59.17;;;26.83;;
18162;SDS011;9206;50.994;4.538;2022-12-18T00:34:54;59.77;;;27.27;;
18162;SDS011;9206;50.994;4.538;2022-12-18T00:37:46;53.80;;;27.10;;
18162;SDS011;9206;50.994;4.538;2022-12-18T00:40:39;54.50;;;26.73;;
18162;SDS011;9206;50.994;4.538;2022-12-18T00:43:27;59.77;;;26.93;;
18162;SDS011;9206;50.994;4.538;2022-12-18T00:46:19;59.30;;;26.23;;
18162;SDS011;9206;50.994;4.538;2022-12-18T00:49:06;58.07;;;26.80;;
18162;SDS011;9206;50.994;4.538;2022-12-18T00:51:54;60.53;;;27.83;;
18162;SDS011;9206;50.994;4.538;2022-12-18T00:54:43;61.83;;;27.60;;
18162;SDS011;9206;50.994;4.538;2022-12-18T00:57:36;55.47;;;26.63;;
18162;SDS011;9206;50.994;4.538;2022-12-18T01:00:29;56.13;;;26.33;;
18162;SDS011;9206;50.994;4.538;2022-12-18T01:03:17;60.70;;;26.67;;
18162;SDS011;9206;50.994;4.538;2022-12-18T01:06:05;63.10;;;27.07;;
18162;SDS011;9206;50.994;4.538;2022-12-18T01:08:55;69.00;;;27.77;;
18162;SDS011;9206;50.994;4.538;2022-12-18T01:17:27;52.63;;;25.43;;
18162;SDS011;9206;50.994;4.538;2022-12-18T01:20:14;56.93;;;26.53;;
18162;SDS011;9206;50.994;4.538;2022-12-18T01:23:01;59.30;;;26.63;;
18162;SDS011;9206;50.994;4.538;2022-12-18T01:25:49;53.37;;;24.93;;
18162;SDS011;9206;50.994;4.538;2022-12-18T01:28:39;56.53;;;25.43;;
18162;SDS011;9206;50.994;4.538;2022-12-18T01:31:28;61.33;;;27.07;;
18162;SDS011;9206;50.994;4.538;2022-12-18T01:34:31;64.40;;;25.83;;
18162;SDS011;9206;50.994;4.538;2022-12-18T01:37:20;55.07;;;23.47;;
18162;SDS011;9206;50.994;4.538;2022-12-18T01:40:09;58.43;;;25.80;;
18162;SDS011;9206;50.994;4.538;2022-12-18T01:43:02;56.93;;;24.63;;
18162;SDS011;9206;50.994;4.538;2022-12-18T01:45:54;59.47;;;26.00;;
18162;SDS011;9206;50.994;4.538;2022-12-18T01:48:49;52.50;;;25.03;;
18162;SDS011;9206;50.994;4.538;2022-12-18T01:51:39;51.17;;;24.13;;
18162;SDS011;9206;50.994;4.538;2022-12-18T01:54:27;54.07;;;23.83;;
18162;SDS011;9206;50.994;4.538;2022-12-18T01:57:20;50.47;;;24.20;;
18162;SDS011;9206;50.994;4.538;2022-12-18T02:00:11;52.77;;;24.60;;
18162;SDS011;9206;50.994;4.538;2022-12-18T02:03:03;45.20;;;23.60;;
18162;SDS011;9206;50.994;4.538;2022-12-18T02:05:52;54.27;;;25.37;;
18162;SDS011;9206;50.994;4.538;2022-12-18T02:08:49;48.37;;;23.17;;
18162;SDS011;9206;50.994;4.538;2022-12-18T02:11:46;52.50;;;23.50;;
18162;SDS011;9206;50.994;4.538;2022-12-18T02:14:40;58.20;;;26.17;;
18162;SDS011;9206;50.994;4.538;2022-12-18T02:20:32;55.40;;;25.50;;
18162;SDS011;9206;50.994;4.538;2022-12-18T02:23:28;46.17;;;23.77;;
18162;SDS011;9206;50.994;4.538;2022-12-18T02:29:29;56.13;;;24.90;;
18162;SDS011;9206;50.994;4.538;2022-12-18T02:32:27;52.33;;;23.73;;
18162;SDS011;9206;50.994;4.538;2022-12-18T02:38:16;54.73;;;25.53;;
18162;SDS011;9206;50.994;4.538;2022-12-18T02:41:05;56.03;;;25.70;;
18162;SDS011;9206;50.994;4.538;2022-12-18T02:43:57;51.57;;;24.70;;
18162;SDS011;9206;50.994;4.538;2022-12-18T02:46:49;52.60;;;23.83;;
18162;SDS011;9206;50.994;4.538;2022-12-18T02:49:46;52.17;;;24.77;;
18162;SDS011;9206;50.994;4.538;2022-12-18T02:52:49;53.13;;;22.80;;
18162;SDS011;9206;50.994;4.538;2022-12-18T02:55:45;50.47;;;22.10;;
18162;SDS011;9206;50.994;4.538;2022-12-18T02:58:44;49.87;;;23.50;;
18162;SDS011;9206;50.994;4.538;2022-12-18T03:01:48;52.80;;;23.73;;
18162;SDS011;9206;50.994;4.538;2022-12-18T03:04:40;48.17;;;21.90;;
18162;SDS011;9206;50.994;4.538;2022-12-18T03:07:42;46.90;;;23.37;;
18162;SDS011;9206;50.994;4.538;2022-12-18T03:10:36;56.23;;;23.37;;
18162;SDS011;9206;50.994;4.538;2022-12-18T03:13:28;55.77;;;23.90;;
18162;SDS011;9206;50.994;4.538;2022-12-18T03:16:26;55.83;;;24.20;;
18162;SDS011;9206;50.994;4.538;2022-12-18T03:19:18;56.50;;;24.00;;
18162;SDS011;9206;50.994;4.538;2022-12-18T03:22:08;53.57;;;25.20;;
18162;SDS011;9206;50.994;4.538;2022-12-18T03:24:59;51.93;;;23.27;;
18162;SDS011;9206;50.994;4.538;2022-12-18T03:27:56;54.20;;;24.03;;
18162;SDS011;9206;50.994;4.538;2022-12-18T03:30:46;52.17;;;23.23;;
18162;SDS011;9206;50.994;4.538;2022-12-18T03:33:39;49.27;;;22.27;;
18162;SDS011;9206;50.994;4.538;2022-12-18T03:36:32;49.50;;;23.57;;
18162;SDS011;9206;50.994;4.538;2022-12-18T03:39:23;44.53;;;21.70;;
18162;SDS011;9206;50.994;4.538;2022-12-18T03:42:17;43.93;;;22.03;;
18162;SDS011;9206;50.994;4.538;2022-12-18T03:45:12;47.50;;;22.87;;
18162;SDS011;9206;50.994;4.538;2022-12-18T03:48:04;51.23;;;21.93;;
18162;SDS011;9206;50.994;4.538;2022-12-18T03:51:01;50.87;;;22.70;;
18162;SDS011;9206;50.994;4.538;2022-12-18T03:54:02;50.47;;;22.60;;
18162;SDS011;9206;50.994;4.538;2022-12-18T03:56:55;44.27;;;21.73;;
18162;SDS011;9206;50.994;4.538;2022-12-18T03:59:48;49.83;;;22.63;;
18162;SDS011;9206;50.994;4.538;2022-12-18T04:02:43;47.73;;;21.80;;
18162;SDS011;9206;50.994;4.538;2022-12-18T04:05:40;43.80;;;21.77;;
18162;SDS011;9206;50.994;4.538;2022-12-18T04:08:31;49.00;;;21.27;;
18162;SDS011;9206;50.994;4.538;2022-12-18T04:11:23;45.87;;;22.03;;
18162;SDS011;9206;50.994;4.538;2022-12-18T04:19:57;48.80;;;20.87;;
18162;SDS011;9206;50.994;4.538;2022-12-18T04:22:51;48.07;;;22.00;;
18162;SDS011;9206;50.994;4.538;2022-12-18T04:25:39;44.90;;;20.80;;
18162;SDS011;9206;50.994;4.538;2022-12-18T04:28:29;48.10;;;21.10;;
18162;SDS011;9206;50.994;4.538;2022-12-18T04:31:17;54.17;;;20.33;;
18162;SDS011;9206;50.994;4.538;2022-12-18T04:37:00;53.40;;;22.67;;
18162;SDS011;9206;50.994;4.538;2022-12-18T04:39:48;40.50;;;18.87;;
18162;SDS011;9206;50.994;4.538;2022-12-18T04:42:36;36.00;;;17.83;;
18162;SDS011;9206;50.994;4.538;2022-12-18T04:45:27;42.90;;;19.40;;
18162;SDS011;9206;50.994;4.538;2022-12-18T04:48:17;43.70;;;19.23;;
18162;SDS011;9206;50.994;4.538;2022-12-18T04:51:08;40.00;;;18.83;;
18162;SDS011;9206;50.994;4.538;2022-12-18T04:53:56;42.73;;;20.77;;
18162;SDS011;9206;50.994;4.538;2022-12-18T04:56:46;34.60;;;17.07;;
18162;SDS011;9206;50.994;4.538;2022-12-18T05:02:26;39.93;;;19.23;;
18162;SDS011;9206;50.994;4.538;2022-12-18T05:05:17;52.37;;;20.83;;
18162;SDS011;9206;50.994;4.538;2022-12-18T05:08:08;42.43;;;19.80;;
18162;SDS011;9206;50.994;4.538;2022-12-18T05:13:51;38.77;;;19.23;;
18162;SDS011;9206;50.994;4.538;2022-12-18T05:19:31;49.67;;;20.23;;
18162;SDS011;9206;50.994;4.538;2022-12-18T05:22:21;41.63;;;19.60;;
18162;SDS011;9206;50.994;4.538;2022-12-18T05:25:10;48.57;;;20.67;;
18162;SDS011;9206;50.994;4.538;2022-12-18T05:28:03;43.27;;;19.80;;
18162;SDS011;9206;50.994;4.538;2022-12-18T05:30:53;47.77;;;20.50;;
18162;SDS011;9206;50.994;4.538;2022-12-18T05:33:43;36.07;;;18.07;;
18162;SDS011;9206;50.994;4.538;2022-12-18T05:36:32;43.10;;;19.60;;
18162;SDS011;9206;50.994;4.538;2022-12-18T05:39:23;43.13;;;20.00;;
18162;SDS011;9206;50.994;4.538;2022-12-18T05:42:14;40.33;;;18.67;;
18162;SDS011;9206;50.994;4.538;2022-12-18T05:45:04;41.43;;;19.83;;
18162;SDS011;9206;50.994;4.538;2022-12-18T05:47:58;38.03;;;18.87;;
18162;SDS011;9206;50.994;4.538;2022-12-18T05:50:51;41.73;;;19.20;;
18162;SDS011;9206;50.994;4.538;2022-12-18T05:53:46;41.93;;;17.17;;
18162;SDS011;9206;50.994;4.538;2022-12-18T05:56:39;49.60;;;21.50;;
18162;SDS011;9206;50.994;4.538;2022-12-18T05:59:29;37.00;;;18.17;;
18162;SDS011;9206;50.994;4.538;2022-12-18T06:02:17;41.90;;;18.77;;
18162;SDS011;9206;50.994;4.538;2022-12-18T06:05:07;42.23;;;18.90;;
18162;SDS011;9206;50.994;4.538;2022-12-18T06:08:02;36.70;;;19.53;;
18162;SDS011;9206;50.994;4.538;2022-12-18T06:10:54;41.97;;;18.57;;
18162;SDS011;9206;50.994;4.538;2022-12-18T06:13:41;42.73;;;18.43;;
18162;SDS011;9206;50.994;4.538;2022-12-18T06:16:32;41.83;;;19.67;;
18162;SDS011;9206;50.994;4.538;2022-12-18T06:19:25;39.07;;;18.03;;
18162;SDS011;9206;50.994;4.538;2022-12-18T06:22:15;41.20;;;19.80;;
18162;SDS011;9206;50.994;4.538;2022-12-18T06:25:02;33.10;;;17.70;;
18162;SDS011;9206;50.994;4.538;2022-12-18T06:27:53;34.20;;;17.83;;
18162;SDS011;9206;50.994;4.538;2022-12-18T06:30:43;38.17;;;17.23;;
18162;SDS011;9206;50.994;4.538;2022-12-18T06:33:30;33.83;;;16.23;;
18162;SDS011;9206;50.994;4.538;2022-12-18T06:36:18;36.70;;;17.33;;
18162;SDS011;9206;50.994;4.538;2022-12-18T06:39:07;35.50;;;16.80;;
18162;SDS011;9206;50.994;4.538;2022-12-18T06:42:01;43.53;;;17.77;;
18162;SDS011;9206;50.994;4.538;2022-12-18T06:44:54;37.73;;;17.83;;
18162;SDS011;9206;50.994;4.538;2022-12-18T06:47:41;34.07;;;17.10;;
18162;SDS011;9206;50.994;4.538;2022-12-18T06:50:28;28.57;;;16.83;;
18162;SDS011;9206;50.994;4.538;2022-12-18T06:53:17;36.53;;;16.77;;
18162;SDS011;9206;50.994;4.538;2022-12-18T06:56:05;33.13;;;16.97;;
18162;SDS011;9206;50.994;4.538;2022-12-18T06:58:53;28.57;;;15.27;;
18162;SDS011;9206;50.994;4.538;2022-12-18T07:01:52;39.80;;;16.00;;
18162;SDS011;9206;50.994;4.538;2022-12-18T07:04:39;29.23;;;15.57;;
18162;SDS011;9206;50.994;4.538;2022-12-18T07:07:26;33.17;;;16.40;;
18162;SDS011;9206;50.994;4.538;2022-12-18T07:10:19;32.57;;;15.50;;
18162;SDS011;9206;50.994;4.538;2022-12-18T07:13:07;28.93;;;16.13;;
18162;SDS011;9206;50.994;4.538;2022-12-18T07:16:02;30.67;;;15.23;;
18162;SDS011;9206;50.994;4.538;2022-12-18T07:18:56;31.10;;;15.73;;
18162;SDS011;9206;50.994;4.538;2022-12-18T07:21:44;38.00;;;16.40;;
18162;SDS011;9206;50.994;4.538;2022-12-18T07:24:34;25.63;;;15.13;;
18162;SDS011;9206;50.994;4.538;2022-12-18T07:27:25;32.00;;;16.00;;
18162;SDS011;9206;50.994;4.538;2022-12-18T07:30:12;25.27;;;15.30;;
18162;SDS011;9206;50.994;4.538;2022-12-18T07:33:02;29.77;;;15.50;;
18162;SDS011;9206;50.994;4.538;2022-12-18T07:38:46;31.37;;;16.87;;
18162;SDS011;9206;50.994;4.538;2022-12-18T07:41:36;29.63;;;16.57;;
18162;SDS011;9206;50.994;4.538;2022-12-18T07:44:25;33.10;;;16.93;;
18162;SDS011;9206;50.994;4.538;2022-12-18T07:47:18;31.30;;;15.93;;
18162;SDS011;9206;50.994;4.538;2022-12-18T07:50:06;30.60;;;15.93;;
18162;SDS011;9206;50.994;4.538;2022-12-18T07:52:55;34.87;;;16.80;;
18162;SDS011;9206;50.994;4.538;2022-12-18T07:55:47;31.07;;;16.27;;
18162;SDS011;9206;50.994;4.538;2022-12-18T07:58:34;27.07;;;16.00;;
18162;SDS011;9206;50.994;4.538;2022-12-18T08:01:28;35.77;;;16.23;;
18162;SDS011;9206;50.994;4.538;2022-12-18T08:04:15;33.57;;;16.27;;
18162;SDS011;9206;50.994;4.538;2022-12-18T08:07:03;35.33;;;17.27;;
18162;SDS011;9206;50.994;4.538;2022-12-18T08:09:52;39.57;;;16.00;;
18162;SDS011;9206;50.994;4.538;2022-12-18T08:12:40;32.53;;;16.00;;
18162;SDS011;9206;50.994;4.538;2022-12-18T08:15:27;32.67;;;16.23;;
18162;SDS011;9206;50.994;4.538;2022-12-18T08:18:20;30.73;;;16.67;;
18162;SDS011;9206;50.994;4.538;2022-12-18T08:21:14;32.00;;;15.77;;
18162;SDS011;9206;50.994;4.538;2022-12-18T08:24:03;33.13;;;16.63;;
18162;SDS011;9206;50.994;4.538;2022-12-18T08:26:58;34.87;;;17.47;;
18162;SDS011;9206;50.994;4.538;2022-12-18T08:29:48;28.10;;;15.47;;
18162;SDS011;9206;50.994;4.538;2022-12-18T08:32:49;29.40;;;15.73;;
18162;SDS011;9206;50.994;4.538;2022-12-18T08:35:38;31.00;;;16.63;;
18162;SDS011;9206;50.994;4.538;2022-12-18T08:38:25;37.20;;;17.53;;
18162;SDS011;9206;50.994;4.538;2022-12-18T08:41:13;30.50;;;15.80;;
18162;SDS011;9206;50.994;4.538;2022-12-18T08:44:04;30.27;;;15.40;;
18162;SDS011;9206;50.994;4.538;2022-12-18T08:47:17;29.93;;;14.97;;
18162;SDS011;9206;50.994;4.538;2022-12-18T08:50:05;32.17;;;16.00;;
18162;SDS011;9206;50.994;4.538;2022-12-18T08:52:55;35.30;;;16.17;;
18162;SDS011;9206;50.994;4.538;2022-12-18T08:55:45;28.23;;;14.90;;
18162;SDS011;9206;50.994;4.538;2022-12-18T08:58:33;30.70;;;15.40;;
18162;SDS011;9206;50.994;4.538;2022-12-18T09:01:22;28.27;;;14.37;;
18162;SDS011;9206;50.994;4.538;2022-12-18T09:04:11;27.83;;;15.13;;
18162;SDS011;9206;50.994;4.538;2022-12-18T09:06:59;30.77;;;15.50;;
18162;SDS011;9206;50.994;4.538;2022-12-18T09:09:49;29.57;;;14.57;;
18162;SDS011;9206;50.994;4.538;2022-12-18T09:12:36;26.00;;;14.10;;
18162;SDS011;9206;50.994;4.538;2022-12-18T09:15:25;27.80;;;13.83;;
18162;SDS011;9206;50.994;4.538;2022-12-18T09:18:15;25.27;;;14.20;;
18162;SDS011;9206;50.994;4.538;2022-12-18T09:21:08;26.00;;;14.63;;
18162;SDS011;9206;50.994;4.538;2022-12-18T09:23:59;28.17;;;14.97;;
18162;SDS011;9206;50.994;4.538;2022-12-18T09:26:47;23.57;;;13.40;;
18162;SDS011;9206;50.994;4.538;2022-12-18T09:29:39;19.13;;;12.00;;
18162;SDS011;9206;50.994;4.538;2022-12-18T09:32:28;28.17;;;13.80;;
18162;SDS011;9206;50.994;4.538;2022-12-18T09:35:18;18.00;;;12.90;;
18162;SDS011;9206;50.994;4.538;2022-12-18T09:38:09;24.17;;;12.60;;
18162;SDS011;9206;50.994;4.538;2022-12-18T09:41:00;26.73;;;14.27;;
18162;SDS011;9206;50.994;4.538;2022-12-18T09:43:54;32.60;;;16.20;;
18162;SDS011;9206;50.994;4.538;2022-12-18T09:46:51;19.47;;;13.40;;
18162;SDS011;9206;50.994;4.538;2022-12-18T09:49:56;21.30;;;12.50;;
18162;SDS011;9206;50.994;4.538;2022-12-18T09:52:50;24.10;;;12.80;;
18162;SDS011;9206;50.994;4.538;2022-12-18T09:55:42;21.87;;;12.80;;
18162;SDS011;9206;50.994;4.538;2022-12-18T09:58:35;21.43;;;14.03;;
18162;SDS011;9206;50.994;4.538;2022-12-18T10:01:34;24.30;;;14.07;;
18162;SDS011;9206;50.994;4.538;2022-12-18T10:04:25;22.50;;;14.20;;
18162;SDS011;9206;50.994;4.538;2022-12-18T10:07:18;23.80;;;14.43;;
18162;SDS011;9206;50.994;4.538;2022-12-18T10:13:12;20.50;;;12.93;;
18162;SDS011;9206;50.994;4.538;2022-12-18T10:16:09;24.57;;;12.20;;
18162;SDS011;9206;50.994;4.538;2022-12-18T10:19:15;22.07;;;12.17;;
18162;SDS011;9206;50.994;4.538;2022-12-18T10:25:13;25.63;;;12.60;;
18162;SDS011;9206;50.994;4.538;2022-12-18T10:28:10;19.87;;;12.80;;
18162;SDS011;9206;50.994;4.538;2022-12-18T10:30:59;21.10;;;12.63;;
18162;SDS011;9206;50.994;4.538;2022-12-18T10:33:48;21.00;;;12.60;;
18162;SDS011;9206;50.994;4.538;2022-12-18T10:36:35;17.80;;;11.70;;
18162;SDS011;9206;50.994;4.538;2022-12-18T10:39:23;19.63;;;12.10;;
18162;SDS011;9206;50.994;4.538;2022-12-18T10:42:16;23.87;;;12.97;;
18162;SDS011;9206;50.994;4.538;2022-12-18T10:45:09;22.97;;;13.43;;
18162;SDS011;9206;50.994;4.538;2022-12-18T10:47:58;21.17;;;12.80;;
18162;SDS011;9206;50.994;4.538;2022-12-18T10:50:47;23.30;;;12.90;;
18162;SDS011;9206;50.994;4.538;2022-12-18T10:53:38;22.83;;;13.43;;
18162;SDS011;9206;50.994;4.538;2022-12-18T10:56:28;20.30;;;13.47;;
18162;SDS011;9206;50.994;4.538;2022-12-18T10:59:19;21.17;;;12.77;;
18162;SDS011;9206;50.994;4.538;2022-12-18T11:02:07;24.10;;;13.37;;
18162;SDS011;9206;50.994;4.538;2022-12-18T11:05:24;21.33;;;13.30;;
18162;SDS011;9206;50.994;4.538;2022-12-18T11:08:19;19.53;;;11.83;;
18162;SDS011;9206;50.994;4.538;2022-12-18T11:11:15;17.57;;;11.93;;
18162;SDS011;9206;50.994;4.538;2022-12-18T11:14:16;17.10;;;11.37;;
18162;SDS011;9206;50.994;4.538;2022-12-18T11:17:17;17.43;;;12.27;;
18162;SDS011;9206;50.994;4.538;2022-12-18T11:20:07;16.30;;;10.90;;
18162;SDS011;9206;50.994;4.538;2022-12-18T11:23:12;16.67;;;12.77;;
18162;SDS011;9206;50.994;4.538;2022-12-18T11:26:01;18.03;;;12.30;;
18162;SDS011;9206;50.994;4.538;2022-12-18T11:28:50;24.70;;;13.30;;
18162;SDS011;9206;50.994;4.538;2022-12-18T11:31:39;15.43;;;12.60;;
18162;SDS011;9206;50.994;4.538;2022-12-18T11:34:27;18.67;;;12.30;;
18162;SDS011;9206;50.994;4.538;2022-12-18T11:37:16;17.30;;;11.43;;
18162;SDS011;9206;50.994;4.538;2022-12-18T11:40:06;17.13;;;12.13;;
18162;SDS011;9206;50.994;4.538;2022-12-18T11:42:58;20.23;;;12.80;;
18162;SDS011;9206;50.994;4.538;2022-12-18T11:45:54;16.70;;;12.07;;
18162;SDS011;9206;50.994;4.538;2022-12-18T11:48:48;16.20;;;12.00;;
18162;SDS011;9206;50.994;4.538;2022-12-18T11:51:43;20.60;;;12.00;;
18162;SDS011;9206;50.994;4.538;2022-12-18T11:54:36;19.10;;;12.73;;
18162;SDS011;9206;50.994;4.538;2022-12-18T11:57:27;16.90;;;11.87;;
18162;SDS011;9206;50.994;4.538;2022-12-18T12:00:21;23.33;;;12.80;;
18162;SDS011;9206;50.994;4.538;2022-12-18T12:06:52;20.93;;;12.07;;
18162;SDS011;9206;50.994;4.538;2022-12-18T12:09:53;17.67;;;10.77;;
18162;SDS011;9206;50.994;4.538;2022-12-18T12:12:52;19.80;;;12.93;;
18162;SDS011;9206;50.994;4.538;2022-12-18T12:15:55;19.87;;;11.80;;
18162;SDS011;9206;50.994;4.538;2022-12-18T12:18:54;21.77;;;13.37;;
18162;SDS011;9206;50.994;4.538;2022-12-18T12:21:52;19.17;;;12.80;;
18162;SDS011;9206;50.994;4.538;2022-12-18T12:24:48;22.20;;;12.27;;
18162;SDS011;9206;50.994;4.538;2022-12-18T12:27:46;18.50;;;13.13;;
18162;SDS011;9206;50.994;4.538;2022-12-18T12:30:43;17.23;;;12.97;;
18162;SDS011;9206;50.994;4.538;2022-12-18T12:33:40;18.03;;;12.73;;
18162;SDS011;9206;50.994;4.538;2022-12-18T12:36:40;20.40;;;13.60;;
18162;SDS011;9206;50.994;4.538;2022-12-18T12:39:37;18.50;;;13.57;;
18162;SDS011;9206;50.994;4.538;2022-12-18T12:42:29;18.70;;;13.43;;
18162;SDS011;9206;50.994;4.538;2022-12-18T12:45:39;19.87;;;14.27;;
18162;SDS011;9206;50.994;4.538;2022-12-18T12:48:32;18.47;;;13.57;;
18162;SDS011;9206;50.994;4.538;2022-12-18T12:51:25;21.60;;;13.67;;
18162;SDS011;9206;50.994;4.538;2022-12-18T12:54:15;21.97;;;13.60;;
18162;SDS011;9206;50.994;4.538;2022-12-18T12:57:09;21.73;;;13.33;;
18162;SDS011;9206;50.994;4.538;2022-12-18T13:00:06;18.50;;;13.13;;
18162;SDS011;9206;50.994;4.538;2022-12-18T13:03:01;19.30;;;13.40;;
18162;SDS011;9206;50.994;4.538;2022-12-18T13:05:56;17.30;;;13.20;;
18162;SDS011;9206;50.994;4.538;2022-12-18T13:15:20;21.37;;;13.93;;
18162;SDS011;9206;50.994;4.538;2022-12-18T13:18:15;19.97;;;13.83;;
18162;SDS011;9206;50.994;4.538;2022-12-18T13:21:20;24.37;;;14.47;;
18162;SDS011;9206;50.994;4.538;2022-12-18T13:24:14;22.37;;;14.10;;
18162;SDS011;9206;50.994;4.538;2022-12-18T13:30:48;20.17;;;13.80;;
18162;SDS011;9206;50.994;4.538;2022-12-18T13:33:46;19.90;;;14.40;;
18162;SDS011;9206;50.994;4.538;2022-12-18T13:36:34;19.17;;;13.47;;
18162;SDS011;9206;50.994;4.538;2022-12-18T13:39:32;19.80;;;13.30;;
18162;SDS011;9206;50.994;4.538;2022-12-18T13:42:39;23.80;;;14.43;;
18162;SDS011;9206;50.994;4.538;2022-12-18T13:45:45;21.63;;;14.47;;
18162;SDS011;9206;50.994;4.538;2022-12-18T13:48:47;23.80;;;15.93;;
18162;SDS011;9206;50.994;4.538;2022-12-18T13:51:44;22.40;;;14.17;;
18162;SDS011;9206;50.994;4.538;2022-12-18T13:54:40;23.27;;;15.03;;
18162;SDS011;9206;50.994;4.538;2022-12-18T13:57:29;23.90;;;14.70;;
18162;SDS011;9206;50.994;4.538;2022-12-18T14:00:25;19.17;;;13.40;;
18162;SDS011;9206;50.994;4.538;2022-12-18T14:03:23;23.83;;;14.80;;
18162;SDS011;9206;50.994;4.538;2022-12-18T14:06:13;23.03;;;14.70;;
18162;SDS011;9206;50.994;4.538;2022-12-18T14:09:03;23.73;;;15.07;;
18162;SDS011;9206;50.994;4.538;2022-12-18T14:11:51;26.20;;;16.40;;
18162;SDS011;9206;50.994;4.538;2022-12-18T14:14:59;20.40;;;14.63;;
18162;SDS011;9206;50.994;4.538;2022-12-18T14:17:47;25.83;;;15.57;;
18162;SDS011;9206;50.994;4.538;2022-12-18T14:20:35;23.77;;;15.37;;
18162;SDS011;9206;50.994;4.538;2022-12-18T14:23:29;24.47;;;16.77;;
18162;SDS011;9206;50.994;4.538;2022-12-18T14:26:20;20.77;;;15.23;;
18162;SDS011;9206;50.994;4.538;2022-12-18T14:29:18;27.67;;;16.13;;
18162;SDS011;9206;50.994;4.538;2022-12-18T14:32:10;23.70;;;15.80;;
18162;SDS011;9206;50.994;4.538;2022-12-18T14:35:12;23.30;;;15.93;;
18162;SDS011;9206;50.994;4.538;2022-12-18T14:38:09;27.17;;;16.40;;
18162;SDS011;9206;50.994;4.538;2022-12-18T14:41:16;24.73;;;16.63;;
18162;SDS011;9206;50.994;4.538;2022-12-18T14:44:05;29.20;;;16.13;;
18162;SDS011;9206;50.994;4.538;2022-12-18T14:46:54;24.50;;;15.53;;
18162;SDS011;9206;50.994;4.538;2022-12-18T14:49:42;30.40;;;16.43;;
18162;SDS011;9206;50.994;4.538;2022-12-18T14:52:30;24.23;;;17.07;;
18162;SDS011;9206;50.994;4.538;2022-12-18T14:55:20;31.97;;;18.97;;
18162;SDS011;9206;50.994;4.538;2022-12-18T14:58:11;26.17;;;17.97;;
18162;SDS011;9206;50.994;4.538;2022-12-18T15:01:02;30.90;;;18.57;;
18162;SDS011;9206;50.994;4.538;2022-12-18T15:03:51;29.17;;;18.20;;
18162;SDS011;9206;50.994;4.538;2022-12-18T15:06:39;29.77;;;18.30;;
18162;SDS011;9206;50.994;4.538;2022-12-18T15:09:27;27.63;;;17.00;;
18162;SDS011;9206;50.994;4.538;2022-12-18T15:12:23;30.43;;;16.57;;
18162;SDS011;9206;50.994;4.538;2022-12-18T15:18:34;25.03;;;15.73;;
18162;SDS011;9206;50.994;4.538;2022-12-18T15:21:28;26.40;;;15.07;;
18162;SDS011;9206;50.994;4.538;2022-12-18T15:24:17;26.70;;;15.90;;
18162;SDS011;9206;50.994;4.538;2022-12-18T15:27:18;23.33;;;15.07;;
18162;SDS011;9206;50.994;4.538;2022-12-18T15:30:18;23.93;;;14.97;;
18162;SDS011;9206;50.994;4.538;2022-12-18T15:33:22;25.07;;;15.80;;
18162;SDS011;9206;50.994;4.538;2022-12-18T15:36:11;27.97;;;14.97;;
18162;SDS011;9206;50.994;4.538;2022-12-18T15:39:00;24.80;;;15.03;;
18162;SDS011;9206;50.994;4.538;2022-12-18T15:41:48;28.70;;;15.60;;
18162;SDS011;9206;50.994;4.538;2022-12-18T15:44:53;25.93;;;15.47;;
18162;SDS011;9206;50.994;4.538;2022-12-18T15:47:40;27.13;;;15.90;;
18162;SDS011;9206;50.994;4.538;2022-12-18T15:50:29;26.00;;;15.50;;
18162;SDS011;9206;50.994;4.538;2022-12-18T15:53:17;29.10;;;16.13;;
18162;SDS011;9206;50.994;4.538;2022-12-18T15:56:07;25.07;;;15.50;;
18162;SDS011;9206;50.994;4.538;2022-12-18T15:59:15;27.73;;;16.00;;
18162;SDS011;9206;50.994;4.538;2022-12-18T16:02:07;29.33;;;15.50;;
18162;SDS011;9206;50.994;4.538;2022-12-18T16:05:02;25.93;;;14.50;;
18162;SDS011;9206;50.994;4.538;2022-12-18T16:07:51;29.33;;;15.73;;
18162;SDS011;9206;50.994;4.538;2022-12-18T16:10:38;30.07;;;16.30;;
18162;SDS011;9206;50.994;4.538;2022-12-18T16:13:26;27.57;;;15.10;;
18162;SDS011;9206;50.994;4.538;2022-12-18T16:16:13;30.13;;;16.90;;
18162;SDS011;9206;50.994;4.538;2022-12-18T16:19:01;26.37;;;15.37;;
18162;SDS011;9206;50.994;4.538;2022-12-18T16:21:55;22.37;;;14.03;;
18162;SDS011;9206;50.994;4.538;2022-12-18T16:25:04;25.33;;;15.03;;
18162;SDS011;9206;50.994;4.538;2022-12-18T16:27:56;23.33;;;14.30;;
18162;SDS011;9206;50.994;4.538;2022-12-18T16:30:44;30.83;;;15.03;;
18162;SDS011;9206;50.994;4.538;2022-12-18T16:33:32;25.50;;;15.23;;
18162;SDS011;9206;50.994;4.538;2022-12-18T16:36:20;27.77;;;15.53;;
18162;SDS011;9206;50.994;4.538;2022-12-18T16:39:07;28.10;;;16.13;;
18162;SDS011;9206;50.994;4.538;2022-12-18T16:41:56;24.70;;;15.13;;
18162;SDS011;9206;50.994;4.538;2022-12-18T16:44:43;25.20;;;15.63;;
18162;SDS011;9206;50.994;4.538;2022-12-18T16:47:31;26.47;;;14.60;;
18162;SDS011;9206;50.994;4.538;2022-12-18T16:50:19;29.87;;;15.13;;
18162;SDS011;9206;50.994;4.538;2022-12-18T16:53:06;28.67;;;15.93;;
18162;SDS011;9206;50.994;4.538;2022-12-18T16:55:53;24.43;;;14.50;;
18162;SDS011;9206;50.994;4.538;2022-12-18T16:58:42;31.40;;;15.43;;
18162;SDS011;9206;50.994;4.538;2022-12-18T17:01:31;31.20;;;15.73;;
18162;SDS011;9206;50.994;4.538;2022-12-18T17:04:18;26.47;;;15.47;;
18162;SDS011;9206;50.994;4.538;2022-12-18T17:07:06;25.33;;;14.57;;
18162;SDS011;9206;50.994;4.538;2022-12-18T17:09:53;25.60;;;15.63;;
18162;SDS011;9206;50.994;4.538;2022-12-18T17:12:41;26.83;;;15.50;;
18162;SDS011;9206;50.994;4.538;2022-12-18T17:15:30;26.23;;;14.83;;
18162;SDS011;9206;50.994;4.538;2022-12-18T17:18:20;30.07;;;15.90;;
18162;SDS011;9206;50.994;4.538;2022-12-18T17:21:08;26.67;;;16.20;;
18162;SDS011;9206;50.994;4.538;2022-12-18T17:23:59;23.97;;;15.40;;
18162;SDS011;9206;50.994;4.538;2022-12-18T17:26:46;27.67;;;16.13;;
18162;SDS011;9206;50.994;4.538;2022-12-18T17:29:34;27.03;;;15.93;;
18162;SDS011;9206;50.994;4.538;2022-12-18T17:32:24;27.17;;;15.80;;
18162;SDS011;9206;50.994;4.538;2022-12-18T17:35:11;23.87;;;14.73;;
18162;SDS011;9206;50.994;4.538;2022-12-18T17:37:59;29.43;;;15.90;;
18162;SDS011;9206;50.994;4.538;2022-12-18T17:40:48;25.80;;;15.50;;
18162;SDS011;9206;50.994;4.538;2022-12-18T17:43:35;28.93;;;16.17;;
18162;SDS011;9206;50.994;4.538;2022-12-18T17:46:30;29.00;;;15.57;;
18162;SDS011;9206;50.994;4.538;2022-12-18T17:49:20;28.03;;;15.83;;
18162;SDS011;9206;50.994;4.538;2022-12-18T17:52:07;32.43;;;16.00;;
18162;SDS011;9206;50.994;4.538;2022-12-18T17:54:55;27.27;;;15.77;;
18162;SDS011;9206;50.994;4.538;2022-12-18T17:57:42;27.80;;;15.93;;
18162;SDS011;9206;50.994;4.538;2022-12-18T18:00:29;30.20;;;15.57;;